Time;durP1;ratioP1;P1;durP2;ratioP2;P2;SDS_P1;SDS_P2;PMS_P1;PMS_P2;Temp;Humidity;BMP_temperature;BMP_pressure;BME280_temperature;BME280_humidity;BME280_pressure;Samples;Min_cycle;Max_cycle;Signal;HPM_P1;HPM_P2
2023/06/22 00:01:52;;;;;;;5.57;4.35;;;;;;;19.37;84.91;101823.94;5081303;28;20081;-70
2023/06/22 00:04:17;;;;;;;6.90;4.00;;;;;;;19.29;86.11;101798.75;5083244;28;20024;-70
2023/06/22 00:06:42;;;;;;;5.25;4.07;;;;;;;19.33;86.57;101803.00;5080332;28;20025;-70
2023/06/22 00:09:08;;;;;;;4.60;3.75;;;;;;;19.22;87.41;101821.09;5083568;28;20101;-70
2023/06/22 00:11:34;;;;;;;4.45;3.95;;;;;;;19.20;87.46;101830.91;5081474;28;20020;-70
2023/06/22 00:13:59;;;;;;;7.35;3.75;;;;;;;19.10;87.72;101817.25;5082431;28;20036;-70
2023/06/22 00:16:25;;;;;;;6.00;4.15;;;;;;;19.11;87.76;101816.31;5082907;28;20055;-70
2023/06/22 00:18:50;;;;;;;4.80;4.05;;;;;;;19.09;88.20;101812.84;5080528;28;20036;-70
2023/06/22 00:21:15;;;;;;;4.25;3.65;;;;;;;19.04;88.35;101822.78;5082860;28;20103;-70
2023/06/22 00:23:41;;;;;;;4.88;4.10;;;;;;;19.00;88.23;101821.19;5086861;28;20032;-70
2023/06/22 00:26:06;;;;;;;7.45;4.80;;;;;;;18.99;87.41;101820.31;5085715;28;20566;-70
2023/06/22 00:28:32;;;;;;;7.13;5.00;;;;;;;18.89;87.19;101808.44;5086220;28;20020;-71
2023/06/22 00:30:57;;;;;;;6.43;4.78;;;;;;;18.88;87.83;101820.78;5086738;28;20032;-70
2023/06/22 00:33:22;;;;;;;5.70;4.65;;;;;;;18.68;87.45;101802.25;5079353;28;20036;-70
2023/06/22 00:35:48;;;;;;;8.40;5.20;;;;;;;18.81;87.57;101821.13;5086152;28;20028;-70
2023/06/22 00:38:13;;;;;;;6.25;4.82;;;;;;;18.74;87.72;101817.00;5084126;28;20513;-70
2023/06/22 00:40:38;;;;;;;5.85;4.80;;;;;;;18.71;88.12;101815.34;5085765;28;20121;-70
2023/06/22 00:43:07;;;;;;;5.63;4.05;;;;;;;18.67;89.55;101808.44;5079397;28;20070;-70
2023/06/22 00:45:32;;;;;;;5.72;4.63;;;;;;;18.59;89.42;101810.56;5085620;28;20028;-70
2023/06/22 00:47:58;;;;;;;5.50;4.65;;;;;;;18.58;90.06;101816.78;5083253;28;20051;-70
2023/06/22 00:50:26;;;;;;;6.18;5.57;;;;;;;18.55;90.90;101815.13;5083645;28;20047;-70
2023/06/22 00:52:56;;;;;;;8.13;5.32;;;;;;;18.48;90.47;101808.38;5087937;28;20021;-70
2023/06/22 00:55:22;;;;;;;5.93;5.28;;;;;;;18.38;91.60;101815.81;5082199;28;20029;-70
2023/06/22 00:57:48;;;;;;;8.32;5.47;;;;;;;18.36;92.51;101812.38;5077582;28;20051;-70
2023/06/22 01:00:19;;;;;;;6.65;5.80;;;;;;;18.38;92.15;101796.47;5082979;28;20465;-70
2023/06/22 01:02:45;;;;;;;7.68;6.13;;;;;;;18.37;93.33;101802.66;5087912;28;20463;-70
2023/06/22 01:05:14;;;;;;;7.65;5.88;;;;;;;18.32;92.96;101807.28;5080682;28;20052;-70
2023/06/22 01:07:42;;;;;;;8.75;7.40;;;;;;;18.15;92.64;101785.06;5083576;28;20126;-70
2023/06/22 01:10:31;;;;;;;8.52;6.72;;;;;;;18.28;91.52;101808.31;5081395;28;20035;-70
2023/06/22 01:13:07;;;;;;;8.63;7.25;;;;;;;18.23;92.14;101809.34;5084098;28;20029;-70
2023/06/22 01:16:02;;;;;;;8.10;7.07;;;;;;;18.25;92.26;101801.41;5084570;28;20468;-70
2023/06/22 01:18:30;;;;;;;9.30;7.10;;;;;;;18.28;94.57;101803.91;5078027;28;20031;-70
2023/06/22 01:21:00;;;;;;;9.82;7.70;;;;;;;18.29;94.20;101808.25;5079232;28;20115;-70
2023/06/22 01:24:15;;;;;;;9.18;8.10;;;;;;;18.32;92.31;101815.19;5084707;28;20024;-70
2023/06/22 01:27:00;;;;;;;9.85;8.45;;;;;;;18.31;93.18;101813.47;5066664;28;20056;-70
2023/06/22 01:29:27;;;;;;;9.48;7.68;;;;;;;18.40;94.78;101813.94;5083049;28;20048;-70
2023/06/22 01:31:54;;;;;;;8.77;7.32;;;;;;;18.47;93.41;101807.53;5084591;28;20535;-70
2023/06/22 01:34:21;;;;;;;9.75;7.88;;;;;;;18.53;94.36;101805.53;5074352;28;20479;-70
2023/06/22 01:36:47;;;;;;;11.65;8.40;;;;;;;18.51;94.60;101800.31;5083431;28;20563;-70
2023/06/22 01:39:13;;;;;;;10.98;9.32;;;;;;;18.55;94.17;101798.41;5084675;28;20107;-70
2023/06/22 01:41:41;;;;;;;12.20;9.45;;;;;;;18.49;95.63;101807.44;5084624;28;20452;-70
2023/06/22 01:44:08;;;;;;;10.90;9.27;;;;;;;18.46;95.20;101794.38;5084305;28;20028;-70
2023/06/22 01:46:35;;;;;;;11.93;9.93;;;;;;;18.45;95.46;101804.06;5084312;28;20568;-70
2023/06/22 01:49:02;;;;;;;13.13;9.77;;;;;;;18.40;97.10;101806.03;5085163;28;20383;-70
2023/06/22 01:51:28;;;;;;;11.02;9.63;;;;;;;18.24;96.19;101789.94;5083945;28;20024;-70
2023/06/22 01:53:53;;;;;;;13.18;8.93;;;;;;;18.36;97.41;101793.03;5085406;28;20472;-70
2023/06/22 01:56:19;;;;;;;11.43;9.80;;;;;;;18.31;98.60;101787.94;5080507;28;20025;-70
2023/06/22 01:59:04;;;;;;;11.02;9.52;;;;;;;18.37;98.14;101802.66;5083009;28;20029;-70
2023/06/22 02:01:39;;;;;;;11.57;10.40;;;;;;;18.34;97.49;101795.72;5082103;28;20046;-70
2023/06/22 02:04:11;;;;;;;12.35;10.13;;;;;;;18.30;98.93;101798.56;5084258;28;20095;-70
2023/06/22 02:06:39;;;;;;;12.83;10.23;;;;;;;18.26;98.55;101795.19;5082060;28;20358;-70
2023/06/22 02:09:15;;;;;;;12.52;10.48;;;;;;;18.24;98.12;101799.66;5085010;28;20016;-70
2023/06/22 02:11:44;;;;;;;15.10;11.02;;;;;;;18.21;98.44;101790.09;5081768;28;20028;-70
2023/06/22 02:14:10;;;;;;;13.32;11.85;;;;;;;18.33;97.68;101791.38;5069944;28;20029;-70
2023/06/22 02:16:37;;;;;;;15.52;11.15;;;;;;;18.25;97.99;101793.47;5080411;28;20024;-70
2023/06/22 02:19:03;;;;;;;15.25;10.95;;;;;;;18.31;97.85;101802.91;5082782;28;20021;-70
2023/06/22 02:21:30;;;;;;;15.43;11.70;;;;;;;18.22;99.47;101796.25;5078907;28;20032;-70
2023/06/22 02:23:55;;;;;;;13.77;12.35;;;;;;;18.19;99.04;101791.09;5074282;28;20412;-70
2023/06/22 02:26:21;;;;;;;14.13;12.02;;;;;;;18.10;100.00;101783.53;5086624;28;20036;-70
2023/06/22 02:28:46;;;;;;;13.50;12.10;;;;;;;18.11;100.00;101786.09;5076542;28;20037;-70
2023/06/22 02:31:11;;;;;;;17.65;13.32;;;;;;;18.04;100.00;101778.50;5087946;28;20095;-70
2023/06/22 02:33:37;;;;;;;15.40;13.43;;;;;;;18.00;100.00;101778.59;5072204;28;20025;-70
2023/06/22 02:36:05;;;;;;;16.75;13.25;;;;;;;18.00;100.00;101770.69;5084330;28;20079;-70
2023/06/22 02:38:36;;;;;;;14.98;12.30;;;;;;;18.00;100.00;101772.47;5076376;28;20078;-70
2023/06/22 02:41:02;;;;;;;15.52;13.60;;;;;;;17.94;100.00;101765.66;5087028;28;20024;-70
2023/06/22 02:43:28;;;;;;;15.80;13.15;;;;;;;17.93;100.00;101774.50;5085581;28;20032;-70
2023/06/22 02:45:53;;;;;;;14.85;12.93;;;;;;;17.89;100.00;101765.00;5086208;28;20020;-70
2023/06/22 02:48:18;;;;;;;14.73;13.07;;;;;;;17.88;100.00;101768.53;5082947;28;20044;-70
2023/06/22 02:50:44;;;;;;;16.02;13.32;;;;;;;17.86;100.00;101761.63;5077785;28;20028;-70
2023/06/22 02:53:09;;;;;;;15.95;13.48;;;;;;;17.81;100.00;101761.78;5084059;28;20364;-70
2023/06/22 02:55:35;;;;;;;18.80;14.25;;;;;;;17.78;100.00;101773.31;5082099;28;20108;-70
2023/06/22 02:58:04;;;;;;;15.02;12.85;;;;;;;17.78;100.00;101769.81;5076869;28;20020;-70
2023/06/22 03:00:30;;;;;;;14.85;13.35;;;;;;;17.78;100.00;101775.09;5082244;28;20387;-70
2023/06/22 03:02:56;;;;;;;15.68;13.00;;;;;;;17.73;100.00;101761.22;5081995;28;20459;-70
2023/06/22 03:05:22;;;;;;;17.27;13.95;;;;;;;17.64;100.00;101757.13;5076717;28;20025;-70
2023/06/22 03:07:47;;;;;;;17.40;14.13;;;;;;;17.59;100.00;101747.66;5079189;28;20036;-70
2023/06/22 03:10:14;;;;;;;14.95;13.40;;;;;;;17.61;100.00;101736.16;5083839;28;20463;-70
2023/06/22 03:12:40;;;;;;;19.15;16.02;;;;;;;17.58;100.00;101745.97;5080905;28;20035;-70
2023/06/22 03:15:07;;;;;;;17.25;13.90;;;;;;;17.59;100.00;101745.88;5083085;28;20020;-70
2023/06/22 03:17:34;;;;;;;16.95;14.52;;;;;;;17.57;100.00;101744.25;5082910;28;20024;-70
2023/06/22 03:19:59;;;;;;;21.20;16.08;;;;;;;17.61;100.00;101743.22;5081958;28;20497;-70
2023/06/22 03:22:24;;;;;;;18.90;15.55;;;;;;;17.50;100.00;101731.31;5082864;28;20032;-70
2023/06/22 03:24:50;;;;;;;18.15;14.52;;;;;;;17.59;100.00;101727.44;5077366;28;20025;-70
2023/06/22 03:27:15;;;;;;;19.25;15.95;;;;;;;17.54;100.00;101729.41;5080260;28;20025;-70
2023/06/22 03:29:41;;;;;;;17.33;14.55;;;;;;;17.47;100.00;101714.75;5079233;28;20054;-71
2023/06/22 03:32:06;;;;;;;17.08;14.35;;;;;;;17.53;100.00;101731.19;5081227;28;20028;-70
2023/06/22 03:34:33;;;;;;;18.75;14.73;;;;;;;17.47;100.00;101733.19;5086529;28;20041;-70
2023/06/22 03:36:59;;;;;;;16.05;14.32;;;;;;;17.44;100.00;101735.94;5079901;28;20086;-70
2023/06/22 03:39:24;;;;;;;19.98;14.88;;;;;;;17.41;100.00;101729.00;5080178;28;20032;-70
2023/06/22 03:41:49;;;;;;;17.40;14.10;;;;;;;17.40;100.00;101735.22;5080322;28;20527;-70
2023/06/22 03:44:15;;;;;;;16.45;14.57;;;;;;;17.35;100.00;101733.66;5087379;28;20032;-70
2023/06/22 03:46:40;;;;;;;16.20;14.48;;;;;;;17.36;100.00;101725.69;5080066;28;20032;-70
2023/06/22 03:49:05;;;;;;;17.17;14.13;;;;;;;17.24;100.00;101707.72;5086728;28;20080;-70
2023/06/22 03:51:32;;;;;;;16.83;15.02;;;;;;;17.35;100.00;101725.75;5080654;28;20032;-70
2023/06/22 03:53:57;;;;;;;16.73;14.77;;;;;;;17.36;100.00;101723.03;5085211;28;20024;-70
2023/06/22 03:56:23;;;;;;;18.35;14.77;;;;;;;17.32;100.00;101714.41;5073542;28;20024;-70
2023/06/22 03:58:48;;;;;;;18.55;14.73;;;;;;;17.33;100.00;101717.91;5088719;28;20651;-70
2023/06/22 04:01:13;;;;;;;17.17;15.38;;;;;;;17.33;100.00;101720.56;5087142;28;20111;-70
2023/06/22 04:03:39;;;;;;;19.00;15.90;;;;;;;17.30;100.00;101723.31;5085779;28;20169;-70
2023/06/22 04:06:04;;;;;;;20.63;15.60;;;;;;;17.35;100.00;101723.97;5084186;28;20099;-70
2023/06/22 04:08:30;;;;;;;19.35;16.58;;;;;;;17.36;100.00;101722.19;5086939;28;20111;-70
2023/06/22 04:10:55;;;;;;;18.92;14.90;;;;;;;17.33;100.00;101717.91;5083430;28;20109;-70
2023/06/22 04:13:21;;;;;;;17.65;15.02;;;;;;;17.38;100.00;101723.84;5087007;28;20024;-70
2023/06/22 04:15:46;;;;;;;19.52;15.73;;;;;;;17.44;100.00;101726.25;5084145;28;20353;-70
2023/06/22 04:18:13;;;;;;;18.55;15.85;;;;;;;17.46;100.00;101719.16;5086409;28;20102;-70
2023/06/22 04:20:38;;;;;;;18.48;15.57;;;;;;;17.48;100.00;101716.47;5085532;28;20039;-71
2023/06/22 04:23:04;;;;;;;16.63;14.80;;;;;;;17.54;100.00;101714.44;5084751;28;20037;-70
2023/06/22 04:25:29;;;;;;;18.90;15.82;;;;;;;17.52;100.00;101726.81;5082257;28;20059;-70
2023/06/22 04:27:54;;;;;;;19.25;15.80;;;;;;;17.53;100.00;101719.78;5085882;28;20036;-70
2023/06/22 04:30:20;;;;;;;17.17;14.52;;;;;;;17.66;100.00;101725.44;5074579;28;20044;-70
2023/06/22 04:32:57;;;;;;;17.73;15.30;;;;;;;17.75;100.00;101722.44;5085618;28;20467;-70
2023/06/22 04:35:23;;;;;;;17.42;14.52;;;;;;;17.91;100.00;101720.06;5085618;28;20364;-70
2023/06/22 04:37:49;;;;;;;21.13;15.98;;;;;;;18.01;100.00;101719.63;5086317;28;20028;-70
2023/06/22 04:40:15;;;;;;;18.92;15.05;;;;;;;18.15;100.00;101720.88;5085061;28;20372;-70
2023/06/22 04:42:40;;;;;;;16.92;15.13;;;;;;;18.29;100.00;101718.53;5086256;28;20440;-70
2023/06/22 04:45:06;;;;;;;18.83;14.80;;;;;;;18.39;100.00;101716.34;5086523;28;20044;-70
2023/06/22 04:47:31;;;;;;;18.27;14.65;;;;;;;18.52;100.00;101727.25;5084416;28;20034;-70
2023/06/22 04:49:56;;;;;;;18.58;14.90;;;;;;;18.56;100.00;101720.91;5088838;28;20071;-70
2023/06/22 04:52:22;;;;;;;18.52;14.93;;;;;;;18.69;100.00;101727.38;5083276;28;20048;-70
2023/06/22 04:54:47;;;;;;;19.33;14.77;;;;;;;18.71;100.00;101726.38;5090166;28;20098;-70
2023/06/22 04:57:13;;;;;;;16.70;14.32;;;;;;;18.78;100.00;101721.72;5072793;28;20040;-70
2023/06/22 04:59:41;;;;;;;17.55;15.02;;;;;;;18.71;100.00;101721.09;5090851;28;20195;-70
2023/06/22 05:02:07;;;;;;;17.85;15.13;;;;;;;18.75;100.00;101721.88;5081965;28;20477;-70
2023/06/22 05:04:35;;;;;;;19.92;14.68;;;;;;;18.80;100.00;101721.66;5090546;28;20031;-70
2023/06/22 05:07:01;;;;;;;19.75;15.27;;;;;;;18.84;100.00;101720.59;5076007;28;20387;-70
2023/06/22 05:09:27;;;;;;;19.17;15.48;;;;;;;18.87;100.00;101715.19;5089189;28;20027;-70
2023/06/22 05:11:52;;;;;;;19.77;16.08;;;;;;;18.90;99.53;101700.06;5084051;28;20349;-70
2023/06/22 05:14:18;;;;;;;18.27;15.50;;;;;;;19.07;98.78;101714.31;5086937;28;20053;-70
2023/06/22 05:16:44;;;;;;;18.67;15.93;;;;;;;19.24;98.11;101717.03;5085263;28;20047;-70
2023/06/22 05:19:10;;;;;;;19.27;15.98;;;;;;;19.30;97.83;101714.09;5082193;28;20383;-70
2023/06/22 05:21:36;;;;;;;18.42;15.65;;;;;;;19.45;97.70;101719.59;5080133;28;20051;-70
2023/06/22 05:24:02;;;;;;;17.70;15.80;;;;;;;19.49;97.89;101721.16;5087972;28;20040;-70
2023/06/22 05:26:30;;;;;;;21.70;17.33;;;;;;;19.41;97.32;101716.25;5082128;28;20020;-70
2023/06/22 05:28:55;;;;;;;20.00;16.85;;;;;;;19.40;97.90;101714.53;5088538;28;20044;-70
2023/06/22 05:31:21;;;;;;;27.45;17.83;;;;;;;19.33;97.75;101719.25;5082282;28;20028;-70
2023/06/22 05:33:47;;;;;;;24.33;17.38;;;;;;;19.30;98.46;101714.09;5087238;28;20070;-70
2023/06/22 05:36:14;;;;;;;24.02;18.20;;;;;;;19.24;99.99;101711.75;5083402;28;20024;-70
2023/06/22 05:38:40;;;;;;;23.15;18.02;;;;;;;19.13;100.00;101703.47;5085335;28;20024;-70
2023/06/22 05:41:05;;;;;;;21.65;18.27;;;;;;;19.00;100.00;101691.69;5085417;28;20028;-70
2023/06/22 05:43:31;;;;;;;20.05;17.85;;;;;;;19.04;100.00;101699.44;5082949;28;21306;-70
2023/06/22 05:45:58;;;;;;;21.13;17.92;;;;;;;18.93;100.00;101688.47;5085316;28;20024;-70
2023/06/22 05:48:23;;;;;;;24.65;18.83;;;;;;;19.08;100.00;101718.66;5084006;28;20364;-70
2023/06/22 05:50:48;;;;;;;23.30;19.67;;;;;;;19.16;100.00;101719.16;5084575;28;20028;-70
2023/06/22 05:53:14;;;;;;;22.67;19.58;;;;;;;19.28;100.00;101718.59;5085358;28;20031;-70
2023/06/22 05:55:42;;;;;;;23.00;19.73;;;;;;;19.37;100.00;101707.59;5084436;28;20032;-70
2023/06/22 05:58:07;;;;;;;24.65;20.52;;;;;;;19.42;100.00;101699.44;5075645;28;20123;-70
2023/06/22 06:00:33;;;;;;;25.30;19.80;;;;;;;19.57;100.00;101700.50;5083768;28;20516;-70
2023/06/22 06:03:02;;;;;;;23.10;18.35;;;;;;;19.72;100.00;101704.22;5085149;28;20101;-70
2023/06/22 06:05:28;;;;;;;23.83;20.35;;;;;;;19.77;100.00;101704.88;5084373;28;20025;-70
2023/06/22 06:07:53;;;;;;;23.20;20.58;;;;;;;19.93;99.01;101713.78;5078574;28;20039;-70
2023/06/22 06:10:19;;;;;;;26.67;20.95;;;;;;;19.97;99.01;101706.56;5086687;28;20024;-70
2023/06/22 06:12:44;;;;;;;22.75;19.45;;;;;;;20.08;98.45;101702.47;5081502;28;20054;-70
2023/06/22 06:15:09;;;;;;;22.13;19.00;;;;;;;20.22;98.63;101706.19;5084516;28;20024;-70
2023/06/22 06:17:35;;;;;;;25.25;19.63;;;;;;;20.29;98.38;101703.16;5082136;28;20031;-70
2023/06/22 06:20:06;;;;;;;23.40;21.00;;;;;;;20.30;96.35;101696.06;5083378;28;20039;-70
2023/06/22 06:22:32;;;;;;;22.48;19.73;;;;;;;20.42;97.81;101707.84;5082911;28;20020;-70
2023/06/22 06:24:57;;;;;;;24.33;19.67;;;;;;;20.52;96.53;101717.91;5081004;28;20030;-70
2023/06/22 06:27:29;;;;;;;27.10;20.02;;;;;;;20.58;96.34;101707.00;5084597;28;20012;-71
2023/06/22 06:29:55;;;;;;;24.58;19.83;;;;;;;20.66;96.02;101698.66;5083397;28;20048;-70
2023/06/22 06:32:20;;;;;;;23.05;19.30;;;;;;;20.74;95.58;101711.50;5083314;28;20097;-70
2023/06/22 06:34:45;;;;;;;22.23;19.10;;;;;;;20.76;95.88;101702.56;5085305;28;20111;-70
2023/06/22 06:37:11;;;;;;;22.13;19.70;;;;;;;20.84;93.37;101701.28;5081559;28;20017;-71
2023/06/22 06:39:36;;;;;;;22.98;19.40;;;;;;;20.87;93.71;101707.28;5087143;28;20020;-70
2023/06/22 06:42:02;;;;;;;25.52;20.45;;;;;;;20.94;94.17;101699.84;5080697;28;20056;-70
2023/06/22 06:44:27;;;;;;;23.85;19.88;;;;;;;20.93;93.48;101711.41;5088443;28;20103;-70
2023/06/22 06:46:54;;;;;;;27.15;20.80;;;;;;;20.91;93.04;101713.28;5080334;28;20032;-70
2023/06/22 06:49:19;;;;;;;25.42;20.10;;;;;;;20.84;94.33;101711.88;5088969;28;20028;-70
2023/06/22 06:51:44;;;;;;;25.60;20.98;;;;;;;20.85;93.86;101713.59;5080568;28;20028;-70
2023/06/22 06:54:10;;;;;;;22.73;20.20;;;;;;;20.89;95.42;101713.34;5086733;28;20100;-70
2023/06/22 06:56:35;;;;;;;23.10;19.98;;;;;;;20.86;95.03;101705.53;5073144;28;20017;-70
2023/06/22 06:59:01;;;;;;;26.33;20.73;;;;;;;20.80;96.11;101709.41;5081513;28;20496;-70
2023/06/22 07:01:26;;;;;;;24.55;21.23;;;;;;;20.80;96.33;101709.41;5084754;28;20023;-70
2023/06/22 07:03:51;;;;;;;22.33;19.92;;;;;;;20.78;96.45;101711.25;5083603;28;20111;-70
2023/06/22 07:06:17;;;;;;;25.23;20.23;;;;;;;20.74;96.78;101704.41;5084130;28;20122;-70
2023/06/22 07:08:42;;;;;;;24.05;20.48;;;;;;;20.72;96.63;101700.97;5082229;28;20368;-77
2023/06/22 07:11:08;;;;;;;22.80;20.30;;;;;;;20.77;96.32;101708.69;5079943;28;20031;-70
2023/06/22 07:13:33;;;;;;;26.75;20.65;;;;;;;20.74;95.66;101712.38;5082364;28;20468;-70
2023/06/22 07:15:59;;;;;;;29.40;22.75;;;;;;;20.64;94.73;101712.94;5082447;28;20092;-70
2023/06/22 07:18:27;;;;;;;24.23;21.63;;;;;;;20.65;95.94;101709.34;5083525;28;20052;-70
2023/06/22 07:20:52;;;;;;;23.58;21.05;;;;;;;20.67;96.10;101716.28;5081471;28;20082;-70
2023/06/22 07:23:18;;;;;;;25.00;21.60;;;;;;;20.69;98.21;101714.38;5083612;28;20413;-70
2023/06/22 07:25:43;;;;;;;29.52;21.75;;;;;;;20.71;95.80;101707.22;5083314;28;20111;-70
2023/06/22 07:28:08;;;;;;;24.50;21.58;;;;;;;20.68;95.57;101701.22;5081671;28;20112;-70
2023/06/22 07:30:34;;;;;;;24.33;21.80;;;;;;;20.68;97.49;101704.72;5085227;28;20388;-70
2023/06/22 07:33:04;;;;;;;29.73;22.40;;;;;;;20.64;97.78;101697.03;5087070;28;20058;-70
2023/06/22 07:35:32;;;;;;;26.33;22.02;;;;;;;20.57;99.73;101689.41;5075406;28;20382;-70
2023/06/22 07:37:58;;;;;;;25.08;21.83;;;;;;;20.38;100.00;101687.75;5087763;28;20039;-69
2023/06/22 07:40:23;;;;;;;30.20;22.30;;;;;;;20.16;100.00;101680.03;5085930;28;20021;-70
2023/06/22 07:42:51;;;;;;;27.23;22.88;;;;;;;20.08;100.00;101680.44;5087067;28;20028;-70
2023/06/22 07:45:17;;;;;;;26.15;22.80;;;;;;;20.06;100.00;101669.03;5086402;28;20027;-70
2023/06/22 07:47:42;;;;;;;29.00;23.95;;;;;;;20.12;100.00;101668.75;5087507;28;20031;-70
2023/06/22 07:50:11;;;;;;;27.45;22.95;;;;;;;20.21;100.00;101655.03;5087807;28;20114;-70
2023/06/22 07:52:37;;;;;;;28.38;24.40;;;;;;;20.21;100.00;101651.53;5086018;28;20036;-70
2023/06/22 07:55:02;;;;;;;27.65;23.45;;;;;;;20.30;100.00;101641.31;5089774;28;20025;-69
2023/06/22 07:57:34;;;;;;;31.63;25.33;;;;;;;20.42;100.00;101626.59;5076773;28;20052;-70
2023/06/22 08:00:00;;;;;;;28.77;25.67;;;;;;;20.75;100.00;101634.56;5091143;28;20194;-70
2023/06/22 08:02:26;;;;;;;28.50;24.17;;;;;;;21.07;100.00;101628.47;5083329;28;20035;-70
2023/06/22 08:04:55;;;;;;;27.92;24.85;;;;;;;21.22;100.00;101623.19;5091391;28;20060;-69
2023/06/22 08:07:20;;;;;;;29.88;25.45;;;;;;;21.38;100.00;101617.03;5083979;28;20028;-70
2023/06/22 08:09:48;;;;;;;29.70;25.83;;;;;;;21.46;100.00;101601.56;5083536;28;20035;-70
2023/06/22 08:12:13;;;;;;;26.83;23.83;;;;;;;21.72;100.00;101600.91;5088401;28;20035;-70
2023/06/22 08:14:39;;;;;;;25.92;23.13;;;;;;;21.83;97.89;101596.75;5083561;28;20479;-70
2023/06/22 08:17:04;;;;;;;24.73;21.95;;;;;;;22.00;97.73;101593.09;5088749;28;20823;-70
2023/06/22 08:19:30;;;;;;;26.83;21.60;;;;;;;22.07;96.01;101597.09;5083269;28;20028;-70
2023/06/22 08:21:56;;;;;;;24.35;20.52;;;;;;;22.07;91.47;101600.63;5083471;28;20048;-70
2023/06/22 08:24:21;;;;;;;23.52;20.48;;;;;;;22.06;94.92;101593.59;5087997;28;20052;-70
2023/06/22 08:26:47;;;;;;;25.88;21.38;;;;;;;22.09;92.90;101593.41;5083081;28;20068;-70
2023/06/22 08:29:12;;;;;;;24.65;20.27;;;;;;;21.96;91.28;101576.50;5090505;28;20043;-70
2023/06/22 08:31:37;;;;;;;24.55;19.55;;;;;;;21.93;92.11;101582.84;5082311;28;20036;-70
2023/06/22 08:34:02;;;;;;;26.27;20.92;;;;;;;22.00;89.82;101593.94;5090984;28;20016;-70
2023/06/22 08:36:30;;;;;;;26.42;19.95;;;;;;;21.95;91.67;101596.03;5082991;28;20082;-70
2023/06/22 08:39:01;;;;;;;24.48;21.83;;;;;;;21.82;91.38;101593.25;5088872;28;20020;-70
2023/06/22 08:41:27;;;;;;;25.15;20.30;;;;;;;21.78;92.25;101596.16;5083496;28;20046;-70
2023/06/22 08:43:52;;;;;;;23.83;19.98;;;;;;;21.74;93.36;101599.03;5088532;28;20024;-70
2023/06/22 08:46:22;;;;;;;23.50;20.52;;;;;;;21.71;92.37;101595.66;5085228;28;20467;-70
2023/06/22 08:48:47;;;;;;;26.17;21.35;;;;;;;21.66;95.53;101590.63;5087022;28;20130;-69
2023/06/22 08:51:13;;;;;;;23.77;20.30;;;;;;;21.70;93.82;101591.31;5086369;28;20071;-70
2023/06/22 08:53:39;;;;;;;21.73;19.05;;;;;;;21.67;92.90;101583.53;5084933;28;20028;-70
2023/06/22 08:56:04;;;;;;;21.73;19.30;;;;;;;21.66;92.71;101580.03;5083325;28;20524;-70
2023/06/22 08:58:30;;;;;;;22.83;19.02;;;;;;;21.66;95.41;101580.03;5082812;28;20024;-70
2023/06/22 09:00:55;;;;;;;21.27;18.35;;;;;;;21.65;92.62;101578.31;5085639;28;20106;-70
2023/06/22 09:03:20;;;;;;;21.70;17.58;;;;;;;21.65;92.30;101573.03;5085937;28;20028;-70
2023/06/22 09:05:46;;;;;;;19.38;17.33;;;;;;;21.64;91.45;101565.13;5085579;28;20056;-70
2023/06/22 09:08:14;;;;;;;18.80;16.80;;;;;;;21.70;92.59;101562.97;5085220;28;20028;-69
2023/06/22 09:10:40;;;;;;;19.35;17.17;;;;;;;21.73;91.69;101569.91;5082684;28;20426;-70
2023/06/22 09:13:05;;;;;;;18.45;16.35;;;;;;;21.79;91.95;101569.53;5085198;28;20028;-70
2023/06/22 09:15:30;;;;;;;20.08;17.08;;;;;;;21.87;91.07;101569.09;5084867;28;20459;-70
2023/06/22 09:17:57;;;;;;;21.58;17.92;;;;;;;21.93;91.65;101574.88;5083743;28;20480;-70
2023/06/22 09:20:22;;;;;;;19.08;16.88;;;;;;;21.99;92.81;101557.75;5085027;28;20023;-70
2023/06/22 09:22:47;;;;;;;19.73;15.98;;;;;;;22.08;93.67;101572.28;5082986;28;20078;-70
2023/06/22 09:25:13;;;;;;;19.88;17.63;;;;;;;22.06;91.49;101553.75;5081364;28;20464;-70
2023/06/22 09:27:38;;;;;;;18.40;16.00;;;;;;;22.27;88.63;101553.44;5084647;28;20039;-70
2023/06/22 09:30:04;;;;;;;19.20;16.35;;;;;;;22.46;88.75;101559.31;5084224;28;20047;-70
2023/06/22 09:32:29;;;;;;;18.10;15.77;;;;;;;22.63;85.06;101567.09;5085132;28;20031;-70
2023/06/22 09:34:55;;;;;;;18.00;15.75;;;;;;;22.90;83.04;101566.31;5084779;28;20040;-70
2023/06/22 09:37:20;;;;;;;15.40;13.77;;;;;;;23.00;83.33;101569.28;5084705;28;20024;-70
2023/06/22 09:39:45;;;;;;;17.27;13.52;;;;;;;23.02;81.80;101565.56;5087068;28;20028;-70
2023/06/22 09:42:13;;;;;;;15.77;13.45;;;;;;;23.01;78.95;101566.50;5081896;28;20061;-70
2023/06/22 09:44:38;;;;;;;15.55;13.40;;;;;;;23.00;78.09;101561.28;5088901;28;20461;-70
2023/06/22 09:47:04;;;;;;;14.55;12.60;;;;;;;22.99;76.23;101555.13;5082097;28;20027;-70
2023/06/22 09:49:29;;;;;;;14.85;13.38;;;;;;;22.96;76.43;101551.81;5089083;28;20472;-70
2023/06/22 09:51:54;;;;;;;15.57;12.13;;;;;;;22.87;77.71;101547.91;5081434;28;20070;-70
2023/06/22 09:54:20;;;;;;;14.50;12.18;;;;;;;22.77;76.76;101541.47;5089990;28;20028;-70
2023/06/22 09:56:45;;;;;;;18.08;12.70;;;;;;;22.86;74.63;101551.50;5082153;28;20028;-70
2023/06/22 09:59:10;;;;;;;13.43;11.88;;;;;;;22.82;77.29;101548.16;5088248;28;20031;-70
2023/06/22 10:01:35;;;;;;;17.02;11.95;;;;;;;22.79;76.63;101550.16;5083333;28;20122;-70
2023/06/22 10:04:02;;;;;;;11.88;10.73;;;;;;;22.76;78.32;101545.06;5080702;28;20028;-70
2023/06/22 10:06:27;;;;;;;15.25;11.20;;;;;;;22.80;79.88;101547.44;5086441;28;20035;-70
2023/06/22 10:08:53;;;;;;;13.70;11.60;;;;;;;22.80;79.94;101552.75;5082106;28;20028;-70
2023/06/22 10:11:18;;;;;;;14.18;11.80;;;;;;;22.77;75.47;101552.94;5083931;28;20019;-70
2023/06/22 10:13:43;;;;;;;12.32;11.02;;;;;;;22.75;77.23;101553.97;5083510;28;20028;-70
2023/06/22 10:16:09;;;;;;;14.98;11.88;;;;;;;22.76;77.04;101550.38;5082938;28;20028;-70
2023/06/22 10:18:34;;;;;;;16.58;12.63;;;;;;;22.81;73.32;101556.25;5083535;28;20089;-70
2023/06/22 10:20:59;;;;;;;12.55;11.35;;;;;;;22.71;76.54;101549.81;5081961;28;20036;-70
2023/06/22 10:23:25;;;;;;;12.65;11.35;;;;;;;22.69;76.67;101560.53;5083415;28;20024;-70
2023/06/22 10:25:50;;;;;;;12.27;10.55;;;;;;;22.67;82.22;101549.16;5084392;28;20031;-70
2023/06/22 10:28:18;;;;;;;17.92;14.35;;;;;;;22.48;77.54;101553.91;5083288;28;20031;-73
2023/06/22 10:30:44;;;;;;;16.70;13.15;;;;;;;22.28;80.60;101563.13;5083169;28;20155;-70
2023/06/22 10:33:10;;;;;;;16.58;13.35;;;;;;;22.04;83.77;101568.94;5083780;28;20066;-70
2023/06/22 10:35:39;;;;;;;18.38;14.75;;;;;;;21.57;87.56;101556.69;5083999;28;20039;-70
2023/06/22 10:38:05;;;;;;;17.88;15.90;;;;;;;21.34;90.78;101581.00;5082864;28;20038;-70
2023/06/22 10:40:30;;;;;;;20.65;16.20;;;;;;;21.22;94.82;101586.06;5084243;28;20036;-70
2023/06/22 10:42:56;;;;;;;18.30;16.35;;;;;;;21.25;100.00;101596.50;5084283;28;20028;-70
2023/06/22 10:45:21;;;;;;;19.70;15.70;;;;;;;21.26;100.00;101600.00;5083179;28;20444;-70
2023/06/22 10:47:47;;;;;;;17.45;15.07;;;;;;;21.25;99.63;101593.84;5083900;28;20043;-69
2023/06/22 10:50:12;;;;;;;18.80;16.55;;;;;;;21.19;100.00;101601.25;5084383;28;20020;-70
2023/06/22 10:52:38;;;;;;;19.42;16.80;;;;;;;20.89;100.00;101601.16;5082750;28;20036;-70
2023/06/22 10:55:04;;;;;;;25.08;18.77;;;;;;;20.62;100.00;101612.31;5086571;28;20418;-70
2023/06/22 10:57:29;;;;;;;23.73;20.70;;;;;;;20.37;100.00;101601.28;5073070;28;20032;-71
2023/06/22 10:59:54;;;;;;;26.20;21.75;;;;;;;20.15;100.00;101594.47;5083269;28;20136;-71
2023/06/22 11:02:20;;;;;;;28.17;23.17;;;;;;;20.01;100.00;101605.78;5077929;28;20028;-73
2023/06/22 11:04:46;;;;;;;30.55;25.00;;;;;;;19.90;100.00;101617.81;5081522;28;20055;-72
2023/06/22 11:07:11;;;;;;;35.13;27.92;;;;;;;19.87;100.00;101614.38;5083839;28;20032;-72